Time,TemperatureF,DewpointF,PressureIn,WindDirection,WindDirectionDegrees,WindSpeedMPH,WindSpeedGustMPH,Humidity,HourlyPrecipIn,Conditions,Clouds,dailyrainin,SoftwareType,DateUTC
2013-03-17 00:00:00,54.5,47.8,30.00,North,-999,0.0,0.0,78,0.00,,,-99.99,WeatherLink 5.7,2013-03-17 04:00:00,
2013-03-17 00:15:00,54.0,48.0,30.00,North,-999,0.0,0.0,80,0.00,,,-99.99,WeatherLink 5.7,2013-03-17 04:15:00,
2013-03-17 00:30:00,53.7,47.3,30.00,North,-999,0.0,0.0,79,0.00,,,-99.99,WeatherLink 5.7,2013-03-17 04:30:00,
2013-03-17 00:45:00,53.3,47.6,30.00,North,-999,0.0,0.0,81,0.00,,,-99.99,WeatherLink 5.7,2013-03-17 04:45:00,
2013-03-17 01:00:00,52.9,46.9,30.00,North,-999,0.0,0.0,80,0.00,,,-99.99,WeatherLink 5.7,2013-03-17 05:00:00,
2013-03-17 01:15:00,52.4,46.4,29.99,North,-999,0.0,0.0,80,0.00,,,-99.99,WeatherLink 5.7,2013-03-17 05:15:00,
2013-03-17 01:30:00,52.0,46.7,29.99,North,-999,0.0,0.0,82,0.00,,,-99.99,WeatherLink 5.7,2013-03-17 05:30:00,
2013-03-17 01:45:00,51.8,46.5,29.99,North,-999,0.0,0.0,82,0.00,,,-99.99,WeatherLink 5.7,2013-03-17 05:45:00,
2013-03-17 02:00:00,51.4,46.1,29.99,North,-999,0.0,0.0,82,0.00,,,-99.99,WeatherLink 5.7,2013-03-17 06:00:00,
2013-03-17 02:15:00,51.1,46.1,29.98,North,-999,0.0,0.0,83,0.00,,,-99.99,WeatherLink 5.7,2013-03-17 06:15:00,
2013-03-17 02:30:00,51.0,46.0,29.97,North,-999,0.0,0.0,83,0.00,,,-99.99,WeatherLink 5.7,2013-03-17 06:30:00,
2013-03-17 02:45:00,50.7,45.4,29.97,North,-999,0.0,0.0,82,0.00,,,-99.99,WeatherLink 5.7,2013-03-17 06:45:00,
2013-03-17 03:00:00,50.3,45.6,29.97,North,-999,0.0,0.0,84,0.00,,,-99.99,WeatherLink 5.7,2013-03-17 07:00:00,
2013-03-17 03:15:00,50.1,45.5,29.97,North,-999,0.0,0.0,84,0.00,,,-99.99,WeatherLink 5.7,2013-03-17 07:15:00,
2013-03-17 03:30:00,49.9,45.3,29.96,North,-999,0.0,0.0,84,0.00,,,-99.99,WeatherLink 5.7,2013-03-17 07:30:00,
2013-03-17 03:45:00,49.6,45.0,29.96,North,-999,0.0,0.0,84,0.00,,,-99.99,WeatherLink 5.7,2013-03-17 07:45:00,
2013-03-17 04:00:00,49.4,44.8,29.96,North,-999,0.0,0.0,84,0.00,,,-99.99,WeatherLink 5.7,2013-03-17 08:00:00,
2013-03-17 04:15:00,49.5,44.9,29.96,North,-999,0.0,0.0,84,0.00,,,-99.99,WeatherLink 5.7,2013-03-17 08:15:00,
2013-03-17 04:30:00,49.4,44.8,29.95,North,-999,0.0,0.0,84,0.00,,,-99.99,WeatherLink 5.7,2013-03-17 08:30:00,
2013-03-17 04:45:00,49.3,44.7,29.95,North,-999,0.0,0.0,84,0.00,,,-99.99,WeatherLink 5.7,2013-03-17 08:45:00,
2013-03-17 05:00:00,49.2,44.6,29.95,North,-999,0.0,0.0,84,0.00,,,-99.99,WeatherLink 5.7,2013-03-17 09:00:00,
2013-03-17 05:15:00,49.2,44.9,29.96,North,-999,0.0,0.0,85,0.00,,,-99.99,WeatherLink 5.7,2013-03-17 09:15:00,
2013-03-17 05:30:00,49.3,45.0,29.96,North,-999,0.0,0.0,85,0.00,,,-99.99,WeatherLink 5.7,2013-03-17 09:30:00,
2013-03-17 05:45:00,49.6,45.6,29.96,North,-999,0.0,0.0,86,0.00,,,-99.99,WeatherLink 5.7,2013-03-17 09:45:00,
2013-03-17 06:00:00,50.2,46.2,29.97,North,-999,0.0,0.0,86,0.00,,,-99.99,WeatherLink 5.7,2013-03-17 10:00:00,
2013-03-17 06:15:00,50.6,46.6,29.97,North,-999,0.0,0.0,86,0.00,,,-99.99,WeatherLink 5.7,2013-03-17 10:15:00,
2013-03-17 06:30:00,51.0,47.3,29.97,North,-999,0.0,0.0,87,0.00,,,-99.99,WeatherLink 5.7,2013-03-17 10:30:00,
2013-03-17 06:45:00,51.6,47.9,29.97,North,-999,0.0,0.0,87,0.00,,,-99.99,WeatherLink 5.7,2013-03-17 10:45:00,
2013-03-17 07:00:00,52.0,48.6,29.99,North,-999,0.0,0.0,88,0.00,,,-99.99,WeatherLink 5.7,2013-03-17 11:00:00,
2013-03-17 07:15:00,52.7,49.2,29.99,North,-999,0.0,0.0,88,0.00,,,-99.99,WeatherLink 5.7,2013-03-17 11:15:00,
2013-03-17 07:30:00,53.4,50.2,29.99,North,-999,0.0,0.0,89,0.00,,,-99.99,WeatherLink 5.7,2013-03-17 11:30:00,
2013-03-17 07:45:00,54.1,50.6,29.99,North,-999,0.0,0.0,88,0.00,,,-99.99,WeatherLink 5.7,2013-03-17 11:45:00,
2013-03-17 08:00:00,54.5,51.0,30.00,North,-999,0.0,0.0,88,0.00,,,-99.99,WeatherLink 5.7,2013-03-17 12:00:00,
2013-03-17 08:15:00,55.7,52.8,30.00,North,-999,0.0,0.0,90,0.00,,,-99.99,WeatherLink 5.7,2013-03-17 12:15:00,
2013-03-17 08:30:00,57.2,54.3,30.00,North,-999,0.0,0.0,90,0.00,,,-99.99,WeatherLink 5.7,2013-03-17 12:30:00,
2013-03-17 08:45:00,58.2,55.6,30.00,North,-999,0.0,0.0,91,0.00,,,-99.99,WeatherLink 5.7,2013-03-17 12:45:00,
2013-03-17 09:00:00,59.3,56.4,30.00,North,0,0.0,1.0,90,0.00,,,-99.99,WeatherLink 5.7,2013-03-17 13:00:00,
2013-03-17 09:15:00,60.1,56.5,30.01,North,-999,0.0,0.0,88,0.00,,,-99.99,WeatherLink 5.7,2013-03-17 13:15:00,
2013-03-17 09:30:00,61.6,56.7,30.02,North,0,0.0,6.0,84,0.00,,,-99.99,WeatherLink 5.7,2013-03-17 13:30:00,
2013-03-17 09:45:00,62.6,56.0,30.02,North,0,1.0,9.0,79,0.00,,,-99.99,WeatherLink 5.7,2013-03-17 13:45:00,
2013-03-17 10:00:00,63.0,56.7,30.02,North,0,0.0,3.0,80,0.00,,,-99.99,WeatherLink 5.7,2013-03-17 14:00:00,
2013-03-17 10:15:00,63.6,57.0,30.03,North,0,0.0,5.0,79,0.00,,,-99.99,WeatherLink 5.7,2013-03-17 14:15:00,
2013-03-17 10:30:00,64.1,56.7,30.03,North,0,1.0,5.0,77,0.00,,,-99.99,WeatherLink 5.7,2013-03-17 14:30:00,
2013-03-17 10:45:00,65.1,57.3,30.02,North,0,1.0,11.0,76,0.00,,,-99.99,WeatherLink 5.7,2013-03-17 14:45:00,
2013-03-17 11:00:00,67.0,58.1,30.02,North,0,1.0,10.0,73,0.00,,,-99.99,WeatherLink 5.7,2013-03-17 15:00:00,
2013-03-17 11:15:00,68.9,58.7,30.03,North,0,2.0,11.0,70,0.00,,,-99.99,WeatherLink 5.7,2013-03-17 15:15:00,
2013-03-17 11:30:00,70.6,59.1,30.03,North,0,1.0,9.0,67,0.00,,,-99.99,WeatherLink 5.7,2013-03-17 15:30:00,
2013-03-17 11:45:00,72.1,59.2,30.02,North,0,1.0,10.0,64,0.00,,,-99.99,WeatherLink 5.7,2013-03-17 15:45:00,
2013-03-17 12:00:00,72.6,58.8,30.02,North,0,1.0,9.0,62,0.00,,,-99.99,WeatherLink 5.7,2013-03-17 16:00:00,
2013-03-17 12:15:00,72.5,58.7,30.02,North,0,0.0,7.0,62,0.00,,,-99.99,WeatherLink 5.7,2013-03-17 16:15:00,
2013-03-17 12:30:00,72.9,58.7,30.01,North,0,0.0,6.0,61,0.00,,,-99.99,WeatherLink 5.7,2013-03-17 16:30:00,
2013-03-17 12:45:00,73.5,58.3,30.01,North,0,1.0,6.0,59,0.00,,,-99.99,WeatherLink 5.7,2013-03-17 16:45:00,
2013-03-17 13:00:00,73.9,58.7,30.00,North,0,0.0,9.0,59,0.00,,,-99.99,WeatherLink 5.7,2013-03-17 17:00:00,
2013-03-17 13:15:00,74.2,58.5,30.00,North,0,1.0,11.0,58,0.00,,,-99.99,WeatherLink 5.7,2013-03-17 17:15:00,
2013-03-17 13:30:00,74.3,58.6,29.99,North,0,1.0,14.0,58,0.00,,,-99.99,WeatherLink 5.7,2013-03-17 17:30:00,
2013-03-17 13:45:00,74.5,58.3,29.98,North,0,1.0,10.0,57,0.00,,,-99.99,WeatherLink 5.7,2013-03-17 17:45:00,
2013-03-17 14:00:00,74.0,57.8,29.97,North,0,1.0,11.0,57,0.00,,,-99.99,WeatherLink 5.7,2013-03-17 18:00:00,
2013-03-17 14:15:00,74.5,58.3,29.96,North,0,0.0,9.0,57,0.00,,,-99.99,WeatherLink 5.7,2013-03-17 18:15:00,
2013-03-17 14:30:00,75.9,59.1,29.96,North,0,0.0,6.0,56,0.00,,,-99.99,WeatherLink 5.7,2013-03-17 18:30:00,
2013-03-17 14:45:00,76.8,58.9,29.95,North,0,1.0,12.0,54,0.00,,,-99.99,WeatherLink 5.7,2013-03-17 18:45:00,
2013-03-17 15:00:00,77.1,59.2,29.94,North,0,0.0,10.0,54,0.00,,,-99.99,WeatherLink 5.7,2013-03-17 19:00:00,
2013-03-17 15:15:00,77.1,59.2,29.94,North,0,0.0,10.0,54,0.00,,,-99.99,WeatherLink 5.7,2013-03-17 19:15:00,
2013-03-17 15:30:00,76.5,58.6,29.93,North,0,1.0,14.0,54,0.00,,,-99.99,WeatherLink 5.7,2013-03-17 19:30:00,
2013-03-17 15:45:00,75.5,57.7,29.92,North,0,2.0,17.0,54,0.00,,,-99.99,WeatherLink 5.7,2013-03-17 19:45:00,
2013-03-17 16:00:00,74.1,57.4,29.92,North,0,1.0,9.0,56,0.00,,,-99.99,WeatherLink 5.7,2013-03-17 20:00:00,
2013-03-17 16:15:00,73.4,57.2,29.92,North,0,1.0,11.0,57,0.00,,,-99.99,WeatherLink 5.7,2013-03-17 20:15:00,
2013-03-17 16:30:00,73.3,57.6,29.93,North,0,0.0,4.0,58,0.00,,,-99.99,WeatherLink 5.7,2013-03-17 20:30:00,
2013-03-17 16:45:00,72.9,57.3,29.93,North,0,0.0,6.0,58,0.00,,,-99.99,WeatherLink 5.7,2013-03-17 20:45:00,
2013-03-17 17:00:00,72.2,57.5,29.91,North,0,0.0,9.0,60,0.00,,,-99.99,WeatherLink 5.7,2013-03-17 21:00:00,
2013-03-17 17:15:00,71.6,57.4,29.91,North,0,0.0,5.0,61,0.00,,,-99.99,WeatherLink 5.7,2013-03-17 21:15:00,
2013-03-17 17:30:00,71.2,57.5,29.92,North,0,0.0,6.0,62,0.00,,,-99.99,WeatherLink 5.7,2013-03-17 21:30:00,
2013-03-17 17:45:00,71.1,57.4,29.92,North,0,0.0,5.0,62,0.00,,,-99.99,WeatherLink 5.7,2013-03-17 21:45:00,
2013-03-17 18:00:00,71.2,58.0,29.91,North,-999,0.0,0.0,63,0.00,,,-99.99,WeatherLink 5.7,2013-03-17 22:00:00,
2013-03-17 18:15:00,70.9,57.7,29.92,North,0,0.0,4.0,63,0.00,,,-99.99,WeatherLink 5.7,2013-03-17 22:15:00,
2013-03-17 18:30:00,70.3,57.1,29.92,North,-999,0.0,0.0,63,0.00,,,-99.99,WeatherLink 5.7,2013-03-17 22:30:00,
2013-03-17 18:45:00,69.8,57.5,29.91,North,-999,0.0,0.0,65,0.00,,,-99.99,WeatherLink 5.7,2013-03-17 22:45:00,
2013-03-17 19:00:00,69.5,57.2,29.92,North,-999,0.0,0.0,65,0.00,,,-99.99,WeatherLink 5.7,2013-03-17 23:00:00,
2013-03-17 19:15:00,69.0,57.2,29.92,North,-999,0.0,0.0,66,0.00,,,-99.99,WeatherLink 5.7,2013-03-17 23:15:00,
2013-03-17 19:30:00,68.6,56.8,29.92,North,-999,0.0,0.0,66,0.00,,,-99.99,WeatherLink 5.7,2013-03-17 23:30:00,
2013-03-17 19:45:00,68.2,56.4,29.92,North,-999,0.0,0.0,66,0.00,,,-99.99,WeatherLink 5.7,2013-03-17 23:45:00,
2013-03-17 20:00:00,67.9,56.1,29.92,North,-999,0.0,0.0,66,0.00,,,-99.99,WeatherLink 5.7,2013-03-18 00:00:00,
2013-03-17 20:15:00,67.5,56.2,29.93,North,-999,0.0,0.0,67,0.00,,,-99.99,WeatherLink 5.7,2013-03-18 00:15:00,
2013-03-17 20:30:00,67.1,55.8,29.93,North,-999,0.0,0.0,67,0.00,,,-99.99,WeatherLink 5.7,2013-03-18 00:30:00,
2013-03-17 20:45:00,66.7,55.4,29.93,North,-999,0.0,0.0,67,0.00,,,-99.99,WeatherLink 5.7,2013-03-18 00:45:00,
2013-03-17 21:00:00,66.4,55.5,29.93,North,-999,0.0,0.0,68,0.00,,,-99.99,WeatherLink 5.7,2013-03-18 01:00:00,
2013-03-17 21:15:00,66.3,55.4,29.93,North,-999,0.0,0.0,68,0.00,,,-99.99,WeatherLink 5.7,2013-03-18 01:15:00,
2013-03-17 21:30:00,66.1,56.0,29.94,North,-999,0.0,0.0,70,0.00,,,-99.99,WeatherLink 5.7,2013-03-18 01:30:00,
2013-03-17 21:45:00,66.1,56.0,29.94,North,-999,0.0,0.0,70,0.00,,,-99.99,WeatherLink 5.7,2013-03-18 01:45:00,
2013-03-17 22:00:00,66.3,56.6,29.94,North,-999,0.0,0.0,71,0.00,,,-99.99,WeatherLink 5.7,2013-03-18 02:00:00,
2013-03-17 22:15:00,66.3,56.6,29.94,North,-999,0.0,0.0,71,0.00,,,-99.99,WeatherLink 5.7,2013-03-18 02:15:00,
2013-03-17 22:30:00,66.3,56.6,29.94,North,-999,0.0,0.0,71,0.00,,,-99.99,WeatherLink 5.7,2013-03-18 02:30:00,
2013-03-17 22:45:00,66.2,56.5,29.94,North,-999,0.0,0.0,71,0.00,,,-99.99,WeatherLink 5.7,2013-03-18 02:45:00,
2013-03-17 23:00:00,66.0,56.7,29.93,North,-999,0.0,0.0,72,0.00,,,-99.99,WeatherLink 5.7,2013-03-18 03:00:00,
2013-03-17 23:15:00,65.8,56.5,29.93,North,-999,0.0,0.0,72,0.00,,,-99.99,WeatherLink 5.7,2013-03-18 03:15:00,
2013-03-17 23:30:00,65.8,56.5,29.92,North,-999,0.0,0.0,72,0.00,,,-99.99,WeatherLink 5.7,2013-03-18 03:30:00,
2013-03-17 23:45:00,65.6,56.7,29.92,North,0,0.0,6.0,73,0.00,,,-99.99,WeatherLink 5.7,2013-03-18 03:45:00,